« Back
NWS Peachtree City, Ga » Text Product » AHN Terminal Aerodrome Forecast


Printer-friendly Version
Current Version              Previous Versions:   1  2  3  4  5  6  7  8  9  

Terminal Aerodrome Forecast

792
FTUS42 KFFC 240500
TAFAHN
TAF
KAHN 240522Z 2406/2506 06005KT P6SM SKC
     FM241200 06010KT P6SM SKC
     FM241700 10008KT P6SM SCT060
     FM242000 15005KT P6SM SCT060
     FM250200 06004KT P6SM BKN060=



USA.gov is the U.S. government's official web portal to all federal, state and local government web resources and services.